createdAt,value
2023-04-02T00:00:31.293Z,22.20
2023-04-02T00:02:33.683Z,21.25
2023-04-02T00:04:38.151Z,22.92
2023-04-02T00:06:45.059Z,18.75
2023-04-02T00:08:49.011Z,23.63
2023-04-02T00:10:53.460Z,21.67
2023-04-02T00:13:04.400Z,25.27
2023-04-02T00:15:12.331Z,30.65
2023-04-02T00:17:14.520Z,24.10
2023-04-02T00:19:37.582Z,26.60
2023-04-02T00:21:43.239Z,30.52
2023-04-02T00:23:45.306Z,19.75
2023-04-02T00:27:49.736Z,20.23
2023-04-02T00:29:56.701Z,29.50
2023-04-02T00:31:59.985Z,29.35
2023-04-02T00:34:04.842Z,24.20
2023-04-02T00:36:08.094Z,26.40
2023-04-02T00:38:40.343Z,33.05
2023-04-02T00:40:42.861Z,26.73
2023-04-02T00:42:46.509Z,24.52
2023-04-02T00:44:49.596Z,24.33
2023-04-02T00:46:52.506Z,26.20
2023-04-02T00:49:04.373Z,23.60
2023-04-02T00:51:34.866Z,28.55
2023-04-02T00:53:37.551Z,27.17
2023-04-02T00:55:41.730Z,25.92
2023-04-02T00:57:45.013Z,22.48
2023-04-02T01:00:08.589Z,25.90
2023-04-02T01:02:17.706Z,24.13
2023-04-02T01:04:36.548Z,30.05
2023-04-02T01:06:39.288Z,24.25
2023-04-02T01:08:50.036Z,23.20
2023-04-02T01:10:51.836Z,27.90
2023-04-02T01:13:12.227Z,23.80
2023-04-02T01:15:16.763Z,21.70
2023-04-02T01:17:21.369Z,25.65
2023-04-02T01:19:58.650Z,24.85
2023-04-02T01:22:40.438Z,20.70
2023-04-02T01:24:44.057Z,28.45
2023-04-02T01:26:51.749Z,21.63
2023-04-02T01:28:56.348Z,25.33
2023-04-02T01:31:01.493Z,26.58
2023-04-02T01:33:04.110Z,27.80
2023-04-02T01:35:07.476Z,24.63
2023-04-02T01:37:46.908Z,21.35
2023-04-02T01:40:14.866Z,21.42
2023-04-02T01:42:26.040Z,26.88
2023-04-02T01:44:41.731Z,25.60
2023-04-02T01:46:48.219Z,27.77
2023-04-02T01:48:50.098Z,26.80
2023-04-02T01:50:55.478Z,27.35
2023-04-02T01:53:02.815Z,26.40
2023-04-02T01:55:05.549Z,24.88
2023-04-02T01:57:08.545Z,25.38
2023-04-02T01:59:11.693Z,28.45
2023-04-02T02:01:21.871Z,24.38
2023-04-02T02:03:23.832Z,21.73
2023-04-02T02:05:26.708Z,27.67
2023-04-02T02:07:29.199Z,29.00
2023-04-02T02:09:35.599Z,31.35
2023-04-02T02:11:37.599Z,27.45
2023-04-02T02:13:41.592Z,27.17
2023-04-02T02:15:44.673Z,30.58
2023-04-02T02:17:47.923Z,22.38
2023-04-02T02:19:56.928Z,23.38
2023-04-02T02:22:12.284Z,25.27
2023-04-02T02:24:32.248Z,28.75
2023-04-02T02:26:35.941Z,27.48
2023-04-02T02:28:42.192Z,25.67
2023-04-02T02:30:47.119Z,25.35
2023-04-02T02:33:03.891Z,27.67
2023-04-02T02:35:18.466Z,25.98
2023-04-02T02:37:27.135Z,26.95
2023-04-02T02:39:39.826Z,30.77
2023-04-02T02:41:44.394Z,30.00
2023-04-02T02:44:13.078Z,29.42
2023-04-02T02:46:18.462Z,34.97
2023-04-02T02:48:23.971Z,30.65
2023-04-02T02:50:32.166Z,29.73
2023-04-02T02:52:38.459Z,36.10
2023-04-02T02:55:02.347Z,32.95
2023-04-02T02:57:09.791Z,31.85
2023-04-02T02:59:15.056Z,41.95
2023-04-02T03:01:18.825Z,41.00
2023-04-02T03:03:24.858Z,39.10
2023-04-02T03:05:29.245Z,33.78
2023-04-02T03:07:32.016Z,35.05
2023-04-02T03:09:41.993Z,38.92
2023-04-02T03:12:03.791Z,37.78
2023-04-02T03:14:51.370Z,33.92
2023-04-02T03:17:01.160Z,37.53
2023-04-02T03:19:34.812Z,40.63
2023-04-02T03:21:42.877Z,39.78
2023-04-02T03:24:29.617Z,36.95
2023-04-02T03:26:38.178Z,40.25
2023-04-02T03:28:45.534Z,36.17
2023-04-02T03:30:58.368Z,43.83
2023-04-02T03:33:22.909Z,38.03
2023-04-02T03:36:06.416Z,38.58
2023-04-02T03:38:16.716Z,33.28
2023-04-02T03:40:31.179Z,38.50
2023-04-02T03:42:48.135Z,37.95
2023-04-02T03:44:59.032Z,34.78
2023-04-02T03:47:11.524Z,35.08
2023-04-02T03:49:25.923Z,41.05
2023-04-02T03:51:36.807Z,33.83
2023-04-02T03:53:39.082Z,34.67
2023-04-02T03:55:42.684Z,33.55
2023-04-02T03:57:54.253Z,34.38
2023-04-02T04:00:20.441Z,35.05
2023-04-02T04:03:00.098Z,32.15
2023-04-02T04:05:03.730Z,34.20
2023-04-02T04:07:20.445Z,31.90
2023-04-02T04:09:36.361Z,30.88
2023-04-02T04:11:45.765Z,31.83
2023-04-02T04:14:07.921Z,33.67
2023-04-02T04:16:19.095Z,33.45
2023-04-02T04:18:34.845Z,31.95
2023-04-02T04:20:46.077Z,32.45
2023-04-02T04:22:50.122Z,34.65
2023-04-02T04:24:51.998Z,33.78
2023-04-02T04:27:04.955Z,35.70
2023-04-02T04:29:25.049Z,32.70
2023-04-02T04:31:41.313Z,34.95
2023-04-02T04:33:47.289Z,35.15
2023-04-02T04:35:55.685Z,33.15
2023-04-02T04:38:04.113Z,33.95
2023-04-02T04:40:16.549Z,32.88
2023-04-02T04:42:25.845Z,32.50
2023-04-02T04:44:59.994Z,34.80
2023-04-02T04:47:15.581Z,29.23
2023-04-02T04:49:19.809Z,29.83
2023-04-02T04:51:29.656Z,35.33
2023-04-02T04:53:31.852Z,29.45
2023-04-02T04:55:44.519Z,29.67
2023-04-02T04:57:49.867Z,29.73
2023-04-02T05:00:07.191Z,30.77
2023-04-02T05:02:29.679Z,29.65
2023-04-02T05:06:43.374Z,28.92
2023-04-02T05:08:49.207Z,27.98
2023-04-02T05:10:56.997Z,30.30
2023-04-02T05:13:16.915Z,28.42
2023-04-02T05:15:33.463Z,28.42
2023-04-02T05:17:42.777Z,30.15
2023-04-02T05:20:02.924Z,30.02
2023-04-02T05:22:22.637Z,29.98
2023-04-02T05:24:39.774Z,28.75
2023-04-02T05:26:46.982Z,28.55
2023-04-02T05:28:59.728Z,29.48
2023-04-02T05:31:15.237Z,31.23
2023-04-02T05:33:25.652Z,27.70
2023-04-02T05:35:34.077Z,29.23
2023-04-02T05:37:39.592Z,29.73
2023-04-02T05:39:45.341Z,29.58
2023-04-02T05:41:47.699Z,26.92
2023-04-02T05:43:56.315Z,30.17
2023-04-02T05:46:02.475Z,27.83
2023-04-02T05:48:14.720Z,25.13
2023-04-02T05:52:36.268Z,23.27
2023-04-02T05:54:46.326Z,30.75
2023-04-02T05:56:54.992Z,27.48
2023-04-02T05:59:07.655Z,28.15
2023-04-02T06:01:22.171Z,22.83
2023-04-02T06:03:27.379Z,20.98
2023-04-02T06:05:37.050Z,22.27
2023-04-02T06:08:25.731Z,21.33
2023-04-02T06:10:34.996Z,23.65
2023-04-02T06:12:36.783Z,21.90
2023-04-02T06:14:38.742Z,17.23
2023-04-02T06:16:40.977Z,18.17
2023-04-02T06:18:43.706Z,20.05
2023-04-02T06:20:46.234Z,17.80
2023-04-02T06:23:00.600Z,19.88
2023-04-02T06:25:30.402Z,25.25
2023-04-02T06:27:33.928Z,18.83
2023-04-02T06:29:40.258Z,24.10
2023-04-02T06:31:50.132Z,23.42
2023-04-02T06:33:55.001Z,23.52
2023-04-02T06:35:58.194Z,22.70
2023-04-02T06:38:04.246Z,26.02
2023-04-02T06:40:28.028Z,22.25
2023-04-02T06:42:39.443Z,26.88
2023-04-02T06:44:41.551Z,24.27
2023-04-02T06:48:47.700Z,25.65
2023-04-02T06:51:07.279Z,26.17
2023-04-02T06:53:25.732Z,26.02
2023-04-02T06:55:56.678Z,23.88
2023-04-02T06:57:58.518Z,25.10
2023-04-02T07:00:01.016Z,28.35
2023-04-02T07:02:12.810Z,28.50
2023-04-02T07:04:15.005Z,25.98
2023-04-02T07:06:19.597Z,26.88
2023-04-02T07:08:21.510Z,30.85
2023-04-02T07:10:23.570Z,27.27
2023-04-02T07:14:27.743Z,26.52
2023-04-02T07:16:32.147Z,27.13
2023-04-02T07:18:34.462Z,22.90
2023-04-02T07:20:41.715Z,20.98
2023-04-02T07:22:43.586Z,21.45
2023-04-02T07:24:46.633Z,20.42
2023-04-02T07:26:48.464Z,22.52
2023-04-02T07:28:50.436Z,24.00
2023-04-02T07:30:52.829Z,28.17
2023-04-02T07:32:54.704Z,29.48
2023-04-02T07:34:56.623Z,26.35
2023-04-02T07:36:58.572Z,21.80
2023-04-02T07:39:01.970Z,20.83
2023-04-02T07:41:07.673Z,26.92
2023-04-02T07:43:10.061Z,19.75
2023-04-02T07:45:12.745Z,21.55
2023-04-02T07:47:14.629Z,16.20
2023-04-02T07:49:16.835Z,23.73
2023-04-02T07:51:22.804Z,18.83
2023-04-02T07:53:34.731Z,23.42
2023-04-02T07:55:37.023Z,20.95
2023-04-02T07:57:43.642Z,21.85
2023-04-02T07:59:47.451Z,22.13
2023-04-02T08:01:49.428Z,21.63
2023-04-02T08:05:58.389Z,18.38
2023-04-02T08:08:00.315Z,24.20
2023-04-02T08:10:02.889Z,22.58
2023-04-02T08:12:05.075Z,20.25
2023-04-02T08:14:06.980Z,21.35
2023-04-02T08:16:09.806Z,21.23
2023-04-02T08:18:12.280Z,18.50
2023-04-02T08:20:19.411Z,27.25
2023-04-02T08:22:21.264Z,25.05
2023-04-02T08:24:23.512Z,25.67
2023-04-02T08:26:26.288Z,24.48
2023-04-02T08:28:28.119Z,26.67
2023-04-02T08:30:29.971Z,26.50
2023-04-02T08:32:32.226Z,26.73
2023-04-02T08:34:34.100Z,33.33
2023-04-02T08:36:39.249Z,31.23
2023-04-02T08:38:41.164Z,21.65
2023-04-02T08:40:45.887Z,28.98
2023-04-02T08:43:02.791Z,33.13
2023-04-02T08:45:38.326Z,30.60
2023-04-02T08:47:41.206Z,27.90
2023-04-02T08:50:30.291Z,25.27
2023-04-02T08:52:37.283Z,27.10
2023-04-02T08:54:39.162Z,26.27
2023-04-02T08:56:47.263Z,26.02
2023-04-02T08:58:54.408Z,22.98
2023-04-02T09:00:57.411Z,20.95
2023-04-02T09:03:14.458Z,24.80
2023-04-02T09:05:26.871Z,27.30
2023-04-02T09:07:28.843Z,32.72
2023-04-02T09:09:36.080Z,22.13
2023-04-02T09:12:04.145Z,26.48
2023-04-02T09:14:15.997Z,24.05
2023-04-02T09:16:22.822Z,24.20
2023-04-02T09:18:27.430Z,28.35
2023-04-02T09:20:29.427Z,23.95
2023-04-02T09:22:33.574Z,25.45
2023-04-02T09:24:37.793Z,23.60
2023-04-02T09:26:39.713Z,26.35
2023-04-02T09:28:42.182Z,23.85
2023-04-02T09:31:18.160Z,28.65
2023-04-02T09:33:20.096Z,27.20
2023-04-02T09:35:27.267Z,25.00
2023-04-02T09:37:29.568Z,22.88
2023-04-02T09:39:31.403Z,28.02
2023-04-02T09:41:37.065Z,21.45
2023-04-02T09:43:39.539Z,25.23
2023-04-02T09:45:42.932Z,21.90
2023-04-02T09:47:45.193Z,26.50
2023-04-02T09:49:47.054Z,23.17
2023-04-02T09:52:08.677Z,19.40
2023-04-02T09:54:16.500Z,24.47
2023-04-02T09:56:24.284Z,22.52
2023-04-02T09:58:26.138Z,21.00
2023-04-02T10:00:32.068Z,17.90
2023-04-02T10:02:36.835Z,17.63
2023-04-02T10:04:45.426Z,14.73
2023-04-02T10:06:53.451Z,17.85
2023-04-02T10:08:55.440Z,16.52
2023-04-02T10:11:01.839Z,16.50
2023-04-02T10:13:09.282Z,19.83
2023-04-02T10:15:19.284Z,17.60
2023-04-02T10:17:27.499Z,19.33
2023-04-02T10:19:36.333Z,15.65
2023-04-02T10:21:40.270Z,21.73
2023-04-02T10:23:42.283Z,17.38
2023-04-02T10:25:55.085Z,16.58
2023-04-02T10:28:00.004Z,13.85
2023-04-02T10:30:05.360Z,14.57
2023-04-02T10:32:41.583Z,14.50
2023-04-02T10:35:01.132Z,17.50
2023-04-02T10:37:24.290Z,15.38
2023-04-02T10:39:37.613Z,14.10
2023-04-02T10:42:00.143Z,14.07
2023-04-02T10:46:58.913Z,9.07
2023-04-02T10:49:16.923Z,11.20
2023-04-02T10:51:37.462Z,11.05
2023-04-02T10:53:48.628Z,13.45
2023-04-02T10:56:03.453Z,15.63
2023-04-02T10:58:16.694Z,14.20
2023-04-02T11:00:27.934Z,13.15
2023-04-02T11:02:52.426Z,13.05
2023-04-02T11:04:57.509Z,15.25
2023-04-02T11:07:14.288Z,15.23
2023-04-02T11:09:24.860Z,12.00
2023-04-02T11:11:48.777Z,14.85
2023-04-02T11:14:20.027Z,16.65
2023-04-02T11:16:22.403Z,17.02
2023-04-02T11:18:38.897Z,12.50
2023-04-02T11:20:59.938Z,11.07
2023-04-02T11:23:21.259Z,16.95
2023-04-02T11:25:23.946Z,14.57
2023-04-02T11:27:31.644Z,14.32
2023-04-02T11:29:36.460Z,13.95
2023-04-02T11:31:38.698Z,14.57
2023-04-02T11:33:46.149Z,15.88
2023-04-02T11:35:49.238Z,17.98
2023-04-02T11:37:51.680Z,16.05
2023-04-02T11:39:59.299Z,13.63
2023-04-02T11:42:21.268Z,17.73
2023-04-02T11:44:24.776Z,13.75
2023-04-02T11:46:29.398Z,14.10
2023-04-02T11:48:35.986Z,14.90
2023-04-02T11:50:39.391Z,16.90
2023-04-02T11:52:47.317Z,14.73
2023-04-02T11:55:05.762Z,15.20
2023-04-02T11:57:36.309Z,11.82
2023-04-02T12:00:13.720Z,13.85
2023-04-02T12:02:32.996Z,9.52
2023-04-02T12:05:04.359Z,11.68
2023-04-02T12:07:35.022Z,12.80
2023-04-02T12:09:57.968Z,13.35
2023-04-02T12:12:15.627Z,12.75
2023-04-02T12:14:35.656Z,14.00
2023-04-02T12:16:37.988Z,12.43
2023-04-02T12:18:48.767Z,11.90
2023-04-02T12:20:53.483Z,12.45
2023-04-02T12:22:57.583Z,10.82
2023-04-02T12:25:06.060Z,16.30
2023-04-02T12:27:17.450Z,14.13
2023-04-02T12:29:24.400Z,13.00
2023-04-02T12:31:27.762Z,9.52
2023-04-02T12:33:38.385Z,12.43
2023-04-02T12:35:42.680Z,14.35
2023-04-02T12:37:44.583Z,11.48
2023-04-02T12:39:54.271Z,14.27
2023-04-02T12:41:57.258Z,13.98
2023-04-02T12:44:11.662Z,10.55
2023-04-02T12:46:15.196Z,11.23
2023-04-02T12:48:17.200Z,14.65
2023-04-02T12:50:21.182Z,13.15
2023-04-02T12:52:28.748Z,10.20
2023-04-02T12:54:36.567Z,12.13
2023-04-02T12:56:38.406Z,15.45
2023-04-02T12:58:43.046Z,12.25
2023-04-02T13:00:44.997Z,13.05
2023-04-02T13:02:50.693Z,19.33
2023-04-02T13:04:56.030Z,18.35
2023-04-02T13:06:58.534Z,20.10
2023-04-02T13:09:01.846Z,16.98
2023-04-02T13:11:06.078Z,14.18
2023-04-02T13:13:16.975Z,13.35
2023-04-02T13:15:28.324Z,14.60
2023-04-02T13:18:05.117Z,17.65
2023-04-02T13:20:31.310Z,15.82
2023-04-02T13:22:33.146Z,15.40
2023-04-02T13:24:35.032Z,11.70
2023-04-02T13:26:36.957Z,14.50
2023-04-02T13:28:39.081Z,15.07
2023-04-02T13:32:43.033Z,16.35
2023-04-02T13:34:44.916Z,14.68
2023-04-02T13:36:47.343Z,15.23
2023-04-02T13:38:49.192Z,16.30
2023-04-02T13:40:51.838Z,15.85
2023-04-02T13:42:53.775Z,13.88
2023-04-02T13:44:55.939Z,13.68
2023-04-02T13:46:58.612Z,16.30
2023-04-02T13:49:01.191Z,14.77
2023-04-02T13:51:03.189Z,20.20
2023-04-02T13:53:10.177Z,19.27
2023-04-02T13:55:13.940Z,17.73
2023-04-02T13:57:16.004Z,15.77
2023-04-02T14:01:23.076Z,14.93
2023-04-02T14:03:25.006Z,14.63
2023-04-02T14:05:53.734Z,16.05
2023-04-02T14:08:08.970Z,18.27
2023-04-02T14:10:35.290Z,16.90
2023-04-02T14:12:49.195Z,19.50
2023-04-02T14:15:09.683Z,17.38
2023-04-02T14:17:33.623Z,18.83
2023-04-02T14:19:54.056Z,18.67
2023-04-02T14:22:10.852Z,15.65
2023-04-02T14:24:27.658Z,16.60
2023-04-02T14:26:41.746Z,12.93
2023-04-02T14:28:57.589Z,13.77
2023-04-02T14:31:41.282Z,17.27
2023-04-02T14:33:55.421Z,18.23
2023-04-02T14:36:07.264Z,15.45
2023-04-02T14:38:27.212Z,12.80
2023-04-02T14:40:37.142Z,13.90
2023-04-02T14:43:11.698Z,14.13
2023-04-02T14:45:22.353Z,13.75
2023-04-02T14:47:46.464Z,12.57
2023-04-02T14:49:54.733Z,12.73
2023-04-02T14:52:04.638Z,10.98
2023-04-02T14:54:28.430Z,9.43
2023-04-02T14:56:37.868Z,13.27
2023-04-02T14:58:46.796Z,14.75
2023-04-02T15:01:05.837Z,14.10
2023-04-02T15:03:43.959Z,11.15
2023-04-02T15:05:53.919Z,10.38
2023-04-02T15:08:04.895Z,16.30
2023-04-02T15:10:21.829Z,9.00
2023-04-02T15:12:28.798Z,10.63
2023-04-02T15:14:48.818Z,12.20
2023-04-02T15:16:51.173Z,8.75
2023-04-02T15:18:57.099Z,9.05
2023-04-02T15:21:19.988Z,8.10
2023-04-02T15:23:33.581Z,8.65
2023-04-02T15:25:48.271Z,7.63
2023-04-02T15:27:50.163Z,9.75
2023-04-02T15:30:03.316Z,10.13
2023-04-02T15:32:18.423Z,11.35
2023-04-02T15:34:39.323Z,10.40
2023-04-02T15:36:51.986Z,13.63
2023-04-02T15:39:05.262Z,12.93
2023-04-02T15:41:26.730Z,18.38
2023-04-02T15:44:00.968Z,16.33
2023-04-02T15:46:23.176Z,16.45
2023-04-02T15:50:50.428Z,12.32
2023-04-02T15:53:09.303Z,11.45
2023-04-02T15:55:11.152Z,16.73
2023-04-02T15:57:58.428Z,13.73
2023-04-02T16:00:23.841Z,14.65
2023-04-02T16:02:25.875Z,11.75
2023-04-02T16:07:01.734Z,14.70
2023-04-02T16:09:27.348Z,17.08
2023-04-02T16:11:29.461Z,14.10
2023-04-02T16:15:42.494Z,11.15
2023-04-02T16:17:48.689Z,10.90
2023-04-02T16:20:19.991Z,13.80
2023-04-02T16:22:29.081Z,12.68
2023-04-02T16:24:31.260Z,13.07
2023-04-02T16:26:58.069Z,14.98
2023-04-02T16:29:14.823Z,21.25
2023-04-02T16:31:20.953Z,16.13
2023-04-02T16:33:39.662Z,13.90
2023-04-02T16:36:15.837Z,13.98
2023-04-02T16:38:39.555Z,16.88
2023-04-02T16:41:13.393Z,17.63
2023-04-02T16:43:37.406Z,15.23
2023-04-02T16:46:03.283Z,14.73
2023-04-02T16:48:46.672Z,14.70
2023-04-02T16:51:10.941Z,14.35
2023-04-02T16:53:58.449Z,14.90
2023-04-02T16:56:32.914Z,12.85
2023-04-02T16:59:02.837Z,11.35
2023-04-02T17:01:16.323Z,14.30
2023-04-02T17:03:45.352Z,13.27
2023-04-02T17:06:11.150Z,11.90
2023-04-02T17:08:22.977Z,12.45
2023-04-02T17:10:25.011Z,13.48
2023-04-02T17:14:52.677Z,12.85
2023-04-02T17:17:04.058Z,12.27
2023-04-02T17:19:12.861Z,10.20
2023-04-02T17:21:19.490Z,10.27
2023-04-02T17:23:21.662Z,10.95
2023-04-02T17:25:47.530Z,10.43
2023-04-02T17:27:52.960Z,12.95
2023-04-02T17:30:04.119Z,10.77
2023-04-02T17:32:24.384Z,11.13
2023-04-02T17:34:26.506Z,11.95
2023-04-02T17:38:55.034Z,15.00
2023-04-02T17:41:11.989Z,12.98
2023-04-02T17:43:26.440Z,13.52
2023-04-02T17:45:52.119Z,13.45
2023-04-02T17:48:19.572Z,11.95
2023-04-02T17:51:03.336Z,14.30
2023-04-02T17:53:22.749Z,14.27
2023-04-02T17:55:40.529Z,13.13
2023-04-02T17:58:19.337Z,22.58
2023-04-02T18:00:52.353Z,24.48
2023-04-02T18:03:18.977Z,18.42
2023-04-02T18:05:31.105Z,14.70
2023-04-02T18:07:35.677Z,20.35
2023-04-02T18:09:48.031Z,18.90
2023-04-02T18:14:04.472Z,22.45
2023-04-02T18:16:12.242Z,22.45
2023-04-02T18:18:30.796Z,23.33
2023-04-02T18:20:39.289Z,25.40
2023-04-02T18:22:49.627Z,26.27
2023-04-02T18:25:16.436Z,21.48
2023-04-02T18:28:05.989Z,21.52
2023-04-02T18:30:13.903Z,23.38
2023-04-02T18:32:52.641Z,19.02
2023-04-02T18:35:20.290Z,23.48
2023-04-02T18:37:59.479Z,20.58
2023-04-02T18:40:04.513Z,21.48
2023-04-02T18:42:27.687Z,22.10
2023-04-02T18:44:54.904Z,25.05
2023-04-02T18:47:11.609Z,22.50
2023-04-02T18:49:36.994Z,26.48
2023-04-02T18:51:40.187Z,22.42
2023-04-02T18:53:43.369Z,25.77
2023-04-02T18:55:56.547Z,20.98
2023-04-02T18:58:17.861Z,19.83
2023-04-02T19:00:32.851Z,24.05
2023-04-02T19:02:42.969Z,27.98
2023-04-02T19:04:58.404Z,29.25
2023-04-02T19:07:07.088Z,22.40
2023-04-02T19:09:18.881Z,28.13
2023-04-02T19:11:29.656Z,27.10
2023-04-02T19:13:32.036Z,27.15
2023-04-02T19:15:41.952Z,23.50
2023-04-02T19:17:51.305Z,22.15
2023-04-02T19:20:27.594Z,20.95
2023-04-02T19:22:49.710Z,23.05
2023-04-02T19:25:17.739Z,25.58
2023-04-02T19:28:02.042Z,24.17
2023-04-02T19:30:40.572Z,23.73
2023-04-02T19:33:15.125Z,24.33
2023-04-02T19:35:46.639Z,23.55
2023-04-02T19:38:27.552Z,23.77
2023-04-02T19:40:44.741Z,26.17
2023-04-02T19:42:52.248Z,23.02
2023-04-02T19:44:55.026Z,20.48
2023-04-02T19:46:57.730Z,18.20
2023-04-02T19:49:03.614Z,21.80
2023-04-02T19:51:06.802Z,19.23
2023-04-02T19:53:08.818Z,20.15
2023-04-02T19:57:15.823Z,21.35
2023-04-02T19:59:18.895Z,20.67
2023-04-02T20:01:21.125Z,21.95
2023-04-02T20:05:25.185Z,21.52
2023-04-02T20:07:27.204Z,18.40
2023-04-02T20:09:29.916Z,22.85
2023-04-02T20:11:31.781Z,26.08
2023-04-02T20:13:34.856Z,25.25
2023-04-02T20:15:37.153Z,23.17
2023-04-02T20:17:39.253Z,23.73
2023-04-02T20:19:41.356Z,22.83
2023-04-02T20:23:45.339Z,25.77
2023-04-02T20:27:50.144Z,28.00
2023-04-02T20:29:52.045Z,22.85
2023-04-02T20:31:54.170Z,20.30
2023-04-02T20:33:57.484Z,18.85
2023-04-02T20:36:05.004Z,18.77
2023-04-02T20:38:08.293Z,20.85
2023-04-02T20:40:10.821Z,20.58
2023-04-02T20:42:14.154Z,20.10
2023-04-02T20:44:16.255Z,18.98
2023-04-02T20:48:20.061Z,20.27
2023-04-02T20:50:21.987Z,22.23
2023-04-02T20:52:24.362Z,22.73
2023-04-02T20:54:27.274Z,22.33
2023-04-02T20:56:29.444Z,20.88
2023-04-02T20:58:31.733Z,19.90
2023-04-02T21:00:34.000Z,22.98
2023-04-02T21:02:36.516Z,22.52
2023-04-02T21:04:38.551Z,24.80
2023-04-02T21:06:41.289Z,22.00
2023-04-02T21:08:44.137Z,31.85
2023-04-02T21:10:46.282Z,28.50
2023-04-02T21:14:56.796Z,31.65
2023-04-02T21:16:58.754Z,27.52
2023-04-02T21:19:04.418Z,36.75
2023-04-02T21:21:07.220Z,28.70
2023-04-02T21:23:09.144Z,30.40
2023-04-02T21:25:11.089Z,30.83
2023-04-02T21:27:13.224Z,33.47
2023-04-02T21:31:23.060Z,27.77
2023-04-02T21:33:24.914Z,27.90
2023-04-02T21:35:26.836Z,29.48
2023-04-02T21:37:28.794Z,38.55
2023-04-02T21:39:30.907Z,26.88
2023-04-02T21:43:38.583Z,24.88
2023-04-02T21:45:40.605Z,27.85
2023-04-02T21:49:44.425Z,22.55
2023-04-02T21:51:47.322Z,27.10
2023-04-02T21:53:50.003Z,28.20
2023-04-02T21:56:01.170Z,27.20
2023-04-02T21:58:03.351Z,29.35
2023-04-02T22:00:09.216Z,27.42
2023-04-02T22:02:11.910Z,26.30
2023-04-02T22:04:25.307Z,24.58
2023-04-02T22:06:29.509Z,25.20
2023-04-02T22:08:31.603Z,23.98
2023-04-02T22:12:37.728Z,28.63
2023-04-02T22:16:42.215Z,24.90
2023-04-02T22:18:45.899Z,29.83
2023-04-02T22:20:47.745Z,24.70
2023-04-02T22:22:51.049Z,30.65
2023-04-02T22:24:53.004Z,25.38
2023-04-02T22:26:55.035Z,26.85
2023-04-02T22:31:30.533Z,31.20
2023-04-02T22:33:33.120Z,29.02
2023-04-02T22:35:35.172Z,27.55
2023-04-02T22:39:38.807Z,35.15
2023-04-02T22:41:41.016Z,30.33
2023-04-02T22:43:44.265Z,28.63
2023-04-02T22:45:47.420Z,29.38
2023-04-02T22:47:50.848Z,30.77
2023-04-02T22:49:52.738Z,29.52
2023-04-02T22:51:54.702Z,29.58
2023-04-02T22:53:57.443Z,32.80
2023-04-02T22:56:21.652Z,30.23
2023-04-02T22:58:23.943Z,28.55
2023-04-02T23:00:25.767Z,30.73
2023-04-02T23:02:27.833Z,32.85
2023-04-02T23:06:31.984Z,30.38
2023-04-02T23:08:34.795Z,32.22
2023-04-02T23:10:37.013Z,27.50
2023-04-02T23:12:39.004Z,26.67
2023-04-02T23:14:40.873Z,33.25
2023-04-02T23:16:42.782Z,28.90
2023-04-02T23:18:48.630Z,32.72
2023-04-02T23:20:50.644Z,32.22
2023-04-02T23:22:52.476Z,30.60
2023-04-02T23:24:54.596Z,30.00
2023-04-02T23:28:59.313Z,29.83
2023-04-02T23:31:03.176Z,25.35
2023-04-02T23:33:05.168Z,33.22
2023-04-02T23:35:07.168Z,27.38
2023-04-02T23:37:09.364Z,26.40
2023-04-02T23:39:12.983Z,28.40
2023-04-02T23:41:16.924Z,29.55
2023-04-02T23:43:19.082Z,30.75
2023-04-02T23:45:21.084Z,24.35
2023-04-02T23:47:22.918Z,27.42
2023-04-02T23:49:24.771Z,25.25
2023-04-02T23:51:27.299Z,32.00
2023-04-02T23:53:29.145Z,28.90
2023-04-02T23:55:31.105Z,33.15
2023-04-02T23:57:33.032Z,29.00
2023-04-02T23:59:34.967Z,27.45
